Time;durP1;ratioP1;P1;durP2;ratioP2;P2;SDS_P1;SDS_P2;PMS_P1;PMS_P2;Temp;Humidity;BMP_temperature;BMP_pressure;BME280_temperature;BME280_humidity;BME280_pressure;Samples;Min_cycle;Max_cycle;Signal;HPM_P1;HPM_P2
2023/03/28 00:00:36;;;;;;;10.05;6.50;;;4.90;99.90;;;;;;4994550;28;20120;-77
2023/03/28 00:03:01;;;;;;;9.38;6.60;;;4.80;99.90;;;;;;4993110;28;20109;-80
2023/03/28 00:05:28;;;;;;;13.88;9.25;;;4.80;99.90;;;;;;4999064;28;20574;-79
2023/03/28 00:07:55;;;;;;;8.48;6.22;;;4.80;99.90;;;;;;5001735;28;20023;-80
2023/03/28 00:10:21;;;;;;;12.63;7.05;;;4.70;99.90;;;;;;4987818;28;20431;-79
2023/03/28 00:12:47;;;;;;;11.93;8.43;;;4.70;99.90;;;;;;4992839;28;20038;-80
2023/03/28 00:15:14;;;;;;;13.05;7.50;;;4.70;99.90;;;;;;4989110;28;20394;-79
2023/03/28 00:17:43;;;;;;;11.27;7.78;;;4.70;99.90;;;;;;4993228;28;20427;-79
2023/03/28 00:20:11;;;;;;;11.23;7.93;;;4.70;99.90;;;;;;4993781;28;20038;-78
2023/03/28 00:22:37;;;;;;;14.25;8.32;;;4.70;99.90;;;;;;4994213;28;20101;-80
2023/03/28 00:25:05;;;;;;;9.38;7.60;;;4.60;99.90;;;;;;4994392;28;20093;-78
2023/03/28 00:27:32;;;;;;;11.35;8.48;;;4.60;99.90;;;;;;4990597;28;20034;-79
2023/03/28 00:29:59;;;;;;;12.70;8.18;;;4.60;99.90;;;;;;4988020;28;20026;-79
2023/03/28 00:32:25;;;;;;;12.98;8.32;;;4.60;99.90;;;;;;4993881;28;20049;-79
2023/03/28 00:34:51;;;;;;;10.35;8.18;;;4.50;99.90;;;;;;4994322;28;20077;-78
2023/03/28 00:37:17;;;;;;;10.57;7.90;;;4.50;99.90;;;;;;4996428;28;20014;-79
2023/03/28 00:39:52;;;;;;;11.73;8.48;;;4.50;99.90;;;;;;4993793;28;20030;-79
2023/03/28 00:42:21;;;;;;;12.45;8.15;;;4.40;99.90;;;;;;4995489;28;20023;-80
2023/03/28 00:44:55;;;;;;;14.27;8.10;;;4.40;99.90;;;;;;4995092;28;20033;-80
2023/03/28 00:47:26;;;;;;;12.43;8.73;;;4.40;99.90;;;;;;4994368;28;20079;-80
2023/03/28 00:50:21;;;;;;;15.27;8.52;;;4.40;99.90;;;;;;4995692;28;20026;-79
2023/03/28 00:52:54;;;;;;;14.93;9.50;;;4.40;99.90;;;;;;4992545;28;20057;-79
2023/03/28 00:55:27;;;;;;;11.48;7.60;;;4.30;99.90;;;;;;4993958;28;20038;-80
2023/03/28 00:57:53;;;;;;;9.82;7.30;;;4.30;99.90;;;;;;4994659;28;20018;-79
2023/03/28 01:00:22;;;;;;;12.23;7.20;;;4.30;99.90;;;;;;4994808;28;20080;-78
2023/03/28 01:02:53;;;;;;;10.52;7.28;;;4.30;99.90;;;;;;4990824;28;20080;-79
2023/03/28 01:05:25;;;;;;;11.77;8.02;;;4.30;99.90;;;;;;4994776;28;20018;-79
2023/03/28 01:07:56;;;;;;;12.30;8.52;;;4.20;99.90;;;;;;4992134;28;20388;-80
2023/03/28 01:10:23;;;;;;;11.38;7.78;;;4.20;99.90;;;;;;4996080;28;20831;-78
2023/03/28 01:12:54;;;;;;;11.02;8.02;;;4.20;99.90;;;;;;4994606;28;20404;-80
2023/03/28 01:15:21;;;;;;;13.15;9.20;;;4.20;99.90;;;;;;4995528;28;20037;-78
2023/03/28 01:17:49;;;;;;;10.63;8.53;;;4.20;99.90;;;;;;4996148;28;20388;-78
2023/03/28 01:20:31;;;;;;;11.25;8.20;;;4.20;99.90;;;;;;4997551;28;20065;-78
2023/03/28 01:23:30;;;;;;;13.90;9.13;;;4.10;99.90;;;;;;5002409;28;20053;-80
2023/03/28 01:26:22;;;;;;;12.07;8.25;;;4.10;99.90;;;;;;4988486;28;20030;-80
2023/03/28 01:29:05;;;;;;;14.25;8.23;;;4.10;99.90;;;;;;4994214;28;20551;-79
2023/03/28 01:31:46;;;;;;;16.90;9.95;;;4.10;99.90;;;;;;4995950;28;20507;-77
2023/03/28 01:34:18;;;;;;;12.35;9.23;;;4.00;99.90;;;;;;4996086;28;20041;-80
2023/03/28 01:37:11;;;;;;;13.68;9.10;;;4.00;99.90;;;;;;5007713;28;20033;-80
2023/03/28 01:40:05;;;;;;;11.55;8.95;;;4.00;99.90;;;;;;4983523;28;20030;-78
2023/03/28 01:42:52;;;;;;;12.48;9.15;;;4.00;99.90;;;;;;4986535;28;20018;-79
2023/03/28 01:45:23;;;;;;;12.80;8.95;;;4.00;99.90;;;;;;4993658;28;20029;-79
2023/03/28 01:48:15;;;;;;;14.55;11.40;;;3.90;99.90;;;;;;5002082;28;20027;-79
2023/03/28 01:50:46;;;;;;;12.57;9.07;;;3.90;99.90;;;;;;4985503;28;20092;-81
2023/03/28 01:53:28;;;;;;;14.32;9.10;;;3.90;99.90;;;;;;4993657;28;20058;-77
2023/03/28 01:56:21;;;;;;;11.93;9.57;;;3.90;99.90;;;;;;4994652;28;20022;-79
2023/03/28 01:59:02;;;;;;;13.60;10.23;;;3.80;99.90;;;;;;4997148;28;20496;-79
2023/03/28 02:01:39;;;;;;;14.48;9.90;;;3.80;99.90;;;;;;4997127;28;20014;-78
2023/03/28 02:04:09;;;;;;;12.50;9.93;;;3.80;99.90;;;;;;4996820;28;20412;-78
2023/03/28 02:06:38;;;;;;;12.90;8.77;;;3.80;99.90;;;;;;5012935;28;20280;-79
2023/03/28 02:09:06;;;;;;;15.75;9.30;;;3.80;99.90;;;;;;4997693;28;20022;-80
2023/03/28 02:11:33;;;;;;;11.43;8.57;;;3.70;99.90;;;;;;4997769;28;20019;-79
2023/03/28 02:14:12;;;;;;;9.07;7.40;;;3.80;99.90;;;;;;5013015;28;20038;-78
2023/03/28 02:16:40;;;;;;;11.23;7.75;;;3.80;99.90;;;;;;4996183;28;20438;-79
2023/03/28 02:19:08;;;;;;;12.82;8.05;;;3.80;99.90;;;;;;4995535;28;20054;-80
2023/03/28 02:21:44;;;;;;;;;;;3.80;99.90;;;;;;5001864;28;20025;-80
2023/03/28 02:24:11;;;;;;;11.55;7.45;;;3.80;99.90;;;;;;4998679;28;19905;-79
2023/03/28 02:26:44;;;;;;;11.27;7.78;;;3.70;99.90;;;;;;4997613;28;20026;-79
2023/03/28 02:29:11;;;;;;;13.88;7.63;;;3.70;99.90;;;;;;4998225;28;20116;-81
2023/03/28 02:31:38;;;;;;;9.85;6.60;;;3.70;99.90;;;;;;5008384;28;20022;-79
2023/03/28 02:34:04;;;;;;;9.68;7.40;;;3.70;99.90;;;;;;5003239;28;20509;-80
2023/03/28 02:36:55;;;;;;;9.13;7.50;;;3.70;99.90;;;;;;4998527;28;20097;-81
2023/03/28 02:39:24;;;;;;;9.52;6.60;;;3.70;99.90;;;;;;4999279;28;20028;-79
2023/03/28 02:42:18;;;;;;;12.20;8.02;;;3.70;99.90;;;;;;4995118;28;20030;-80
2023/03/28 02:44:56;;;;;;;10.65;5.70;;;3.70;99.90;;;;;;5003875;28;20182;-80
2023/03/28 02:47:34;;;;;;;11.60;6.47;;;3.70;99.90;;;;;;4996273;28;20054;-79
2023/03/28 02:50:19;;;;;;;14.18;7.78;;;3.70;99.90;;;;;;4994061;28;20026;-79
2023/03/28 02:53:08;;;;;;;12.40;7.70;;;3.70;99.90;;;;;;4996114;28;20035;-79
2023/03/28 02:55:53;;;;;;;13.85;7.05;;;3.70;99.90;;;;;;5000704;28;20038;-79
2023/03/28 02:58:52;;;;;;;9.13;6.07;;;3.60;99.90;;;;;;4990562;28;20484;-79
2023/03/28 03:01:19;;;;;;;11.32;6.90;;;3.60;99.90;;;;;;5008718;28;20042;-78
2023/03/28 03:03:47;;;;;;;;;;;3.60;99.90;;;;;;5013515;28;20071;-79
2023/03/28 03:06:13;;;;;;;;;;;3.70;99.90;;;;;;4998002;28;19992;-80
2023/03/28 03:08:39;;;;;;;14.20;8.90;;;3.60;99.90;;;;;;4996459;28;19944;-79
2023/03/28 03:11:06;;;;;;;12.02;7.43;;;3.60;99.90;;;;;;5000311;28;20192;-81
2023/03/28 03:13:32;;;;;;;11.95;8.07;;;3.60;99.90;;;;;;5005970;28;20035;-79
2023/03/28 03:15:59;;;;;;;8.73;5.40;;;3.60;99.90;;;;;;5004079;28;20042;-78
2023/03/28 03:18:26;;;;;;;10.43;6.68;;;3.60;99.90;;;;;;5004221;28;20121;-80
2023/03/28 03:20:52;;;;;;;10.40;6.40;;;3.60;99.90;;;;;;4997026;28;20033;-80
2023/03/28 03:23:18;;;;;;;15.70;7.80;;;3.60;99.90;;;;;;4994804;28;20064;-80
2023/03/28 03:25:44;;;;;;;13.68;7.65;;;3.70;99.90;;;;;;4996852;28;20022;-79
2023/03/28 03:28:10;;;;;;;14.65;7.40;;;3.70;99.90;;;;;;4996828;28;20040;-79
2023/03/28 03:30:36;;;;;;;14.15;7.60;;;3.70;99.90;;;;;;4997051;28;20525;-79
2023/03/28 03:33:04;;;;;;;13.63;7.47;;;3.70;99.90;;;;;;4997392;28;20029;-80
2023/03/28 03:35:33;;;;;;;12.45;7.85;;;3.70;99.90;;;;;;4996454;28;20029;-80
2023/03/28 03:37:59;;;;;;;15.70;8.90;;;3.80;99.90;;;;;;4991985;28;20019;-79
2023/03/28 03:40:25;;;;;;;13.30;8.57;;;3.80;99.90;;;;;;4994206;28;20388;-78
2023/03/28 03:42:51;;;;;;;11.43;7.32;;;3.80;99.90;;;;;;4996618;28;20535;-80
2023/03/28 03:45:17;;;;;;;13.57;7.88;;;3.90;99.90;;;;;;4996357;28;20054;-79
2023/03/28 03:47:44;;;;;;;14.90;8.00;;;3.90;99.90;;;;;;4999442;28;20026;-79
2023/03/28 03:50:10;;;;;;;12.32;8.25;;;4.00;99.90;;;;;;4996146;28;20442;-79
2023/03/28 03:52:36;;;;;;;10.25;7.38;;;4.10;99.90;;;;;;4996002;28;20031;-78
2023/03/28 03:55:02;;;;;;;9.00;6.78;;;4.20;99.90;;;;;;4995957;28;20100;-80
2023/03/28 03:57:28;;;;;;;9.98;7.85;;;4.30;99.90;;;;;;5005814;28;20041;-79
2023/03/28 03:59:56;;;;;;;15.13;7.03;;;4.40;99.90;;;;;;5009149;28;20022;-80
2023/03/28 04:02:21;;;;;;;;;;;4.50;99.90;;;;;;5004233;28;20026;-80
2023/03/28 04:04:47;;;;;;;8.55;5.68;;;4.60;99.90;;;;;;5014736;28;19913;-80
2023/03/28 04:07:16;;;;;;;8.85;6.47;;;4.60;99.90;;;;;;4999455;28;20026;-81
2023/03/28 04:09:42;;;;;;;11.27;7.55;;;4.80;99.90;;;;;;5000469;28;20101;-80
2023/03/28 04:12:10;;;;;;;10.38;7.65;;;4.90;99.90;;;;;;5001627;28;20120;-80
2023/03/28 04:14:36;;;;;;;13.40;7.82;;;4.90;99.90;;;;;;5001664;28;20034;-78
2023/03/28 04:17:03;;;;;;;10.70;8.30;;;5.10;99.90;;;;;;5000977;28;20125;-79
2023/03/28 04:19:29;;;;;;;10.10;7.07;;;5.20;99.90;;;;;;5002304;28;20106;-79
2023/03/28 04:21:58;;;;;;;8.45;7.18;;;5.50;99.90;;;;;;5001226;28;20042;-79
2023/03/28 04:24:25;;;;;;;11.63;7.13;;;5.90;99.90;;;;;;5001862;28;20028;-80
2023/03/28 04:26:54;;;;;;;10.30;6.93;;;6.40;99.90;;;;;;5004713;28;20018;-80
2023/03/28 04:29:29;;;;;;;13.32;6.82;;;6.80;99.90;;;;;;4997155;28;20058;-79
2023/03/28 04:31:58;;;;;;;10.57;6.97;;;7.20;99.90;;;;;;4998723;28;20101;-81
2023/03/28 04:34:28;;;;;;;10.20;7.18;;;7.40;99.90;;;;;;4996106;28;20503;-82
2023/03/28 04:37:01;;;;;;;12.35;6.95;;;7.40;99.90;;;;;;4995444;28;20029;-79
2023/03/28 04:39:29;;;;;;;14.20;7.78;;;7.10;99.90;;;;;;4986158;28;20105;-80
2023/03/28 04:41:55;;;;;;;13.70;7.38;;;6.70;99.90;;;;;;4994990;28;20057;-81
2023/03/28 04:44:22;;;;;;;6.45;5.50;;;6.40;99.90;;;;;;4996918;28;20037;-80
2023/03/28 04:46:49;;;;;;;9.47;7.40;;;6.20;99.90;;;;;;4993754;28;20030;-80
2023/03/28 04:49:16;;;;;;;11.07;6.97;;;6.20;99.90;;;;;;4990411;28;20264;-79
2023/03/28 04:51:42;;;;;;;10.73;6.93;;;6.30;99.90;;;;;;4996221;28;20057;-79
2023/03/28 04:54:08;;;;;;;11.77;8.40;;;6.20;99.90;;;;;;4991118;28;20396;-79
2023/03/28 04:56:35;;;;;;;14.38;8.75;;;6.20;99.90;;;;;;4995600;28;20018;-79
2023/03/28 04:59:01;;;;;;;13.80;8.10;;;6.30;99.90;;;;;;4994562;28;20054;-79
2023/03/28 05:01:27;;;;;;;11.32;8.50;;;6.40;99.90;;;;;;4997797;28;20353;-79
2023/03/28 05:03:53;;;;;;;11.18;8.15;;;6.50;99.90;;;;;;4996655;28;20026;-80
2023/03/28 05:06:20;;;;;;;11.32;7.43;;;6.50;99.90;;;;;;4995346;28;20018;-79
2023/03/28 05:08:46;;;;;;;13.10;7.32;;;6.50;99.90;;;;;;4995569;28;20069;-81
2023/03/28 05:11:12;;;;;;;12.02;7.68;;;6.50;99.90;;;;;;5003801;28;20023;-80
2023/03/28 05:13:38;;;;;;;8.05;6.13;;;6.50;99.90;;;;;;5003308;28;20511;-81
2023/03/28 05:16:04;;;;;;;9.90;6.70;;;6.50;99.90;;;;;;4994658;28;20038;-80
2023/03/28 05:18:30;;;;;;;8.18;6.20;;;6.50;99.90;;;;;;4994226;28;20392;-79
2023/03/28 05:20:56;;;;;;;9.93;7.13;;;6.50;99.90;;;;;;4995495;28;20038;-80
2023/03/28 05:23:22;;;;;;;9.38;6.95;;;6.50;99.90;;;;;;4995283;28;20031;-81
2023/03/28 05:25:52;;;;;;;11.63;6.28;;;6.60;99.90;;;;;;4995067;28;20033;-78
2023/03/28 05:28:17;;;;;;;8.13;6.85;;;6.60;99.90;;;;;;4995188;28;20046;-80
2023/03/28 05:30:43;;;;;;;9.95;7.28;;;6.70;99.90;;;;;;4989803;28;20126;-81
2023/03/28 05:33:09;;;;;;;10.10;6.90;;;6.70;99.90;;;;;;4983149;28;20074;-80
2023/03/28 05:35:36;;;;;;;13.23;9.43;;;6.90;99.90;;;;;;4993635;28;20506;-79
2023/03/28 05:38:03;;;;;;;11.73;8.95;;;7.00;99.90;;;;;;4992300;28;20105;-81
2023/03/28 05:40:29;;;;;;;11.20;7.90;;;7.00;99.90;;;;;;4992762;28;20113;-80
2023/03/28 05:42:55;;;;;;;11.30;7.63;;;7.20;99.90;;;;;;4993301;28;20030;-81
2023/03/28 05:45:21;;;;;;;10.48;7.70;;;7.40;99.90;;;;;;4994067;28;20026;-80
2023/03/28 05:47:51;;;;;;;13.75;8.43;;;7.50;99.50;;;;;;4995909;28;20411;-82
2023/03/28 05:50:17;;;;;;;10.85;7.05;;;7.70;99.30;;;;;;4995126;28;20022;-79
2023/03/28 05:52:43;;;;;;;15.13;8.13;;;7.90;99.00;;;;;;4994818;28;20033;-80
2023/03/28 05:55:09;;;;;;;10.75;7.57;;;8.20;98.70;;;;;;4993994;28;20053;-82
2023/03/28 05:57:35;;;;;;;11.70;8.35;;;8.40;97.80;;;;;;4997311;28;20026;-81
2023/03/28 06:00:03;;;;;;;10.52;5.68;;;8.40;96.80;;;;;;4998076;28;20108;-80
2023/03/28 06:02:29;;;;;;;12.40;8.00;;;8.40;96.20;;;;;;5002995;28;20010;-82
2023/03/28 06:04:56;;;;;;;8.90;5.78;;;8.30;96.00;;;;;;4995901;28;20106;-82
2023/03/28 06:07:22;;;;;;;13.00;5.65;;;8.30;95.80;;;;;;4995991;28;20010;-79
2023/03/28 06:09:48;;;;;;;8.80;6.18;;;8.30;95.90;;;;;;4995130;28;20022;-81
2023/03/28 06:12:14;;;;;;;12.40;7.68;;;8.50;95.90;;;;;;4994699;28;20105;-81
2023/03/28 06:14:40;;;;;;;11.35;6.90;;;8.80;95.90;;;;;;4999186;28;20488;-79
2023/03/28 06:17:06;;;;;;;10.63;6.65;;;9.10;95.40;;;;;;4995517;28;20050;-81
2023/03/28 06:19:32;;;;;;;13.50;7.47;;;9.20;94.70;;;;;;4993563;28;20539;-81
2023/03/28 06:21:58;;;;;;;10.55;7.13;;;9.30;94.50;;;;;;4993775;28;20064;-80
2023/03/28 06:24:24;;;;;;;12.40;6.53;;;9.40;94.20;;;;;;4993969;28;20046;-80
2023/03/28 06:26:50;;;;;;;9.73;5.95;;;9.40;93.80;;;;;;4993353;28;20026;-81
2023/03/28 06:29:18;;;;;;;8.95;6.43;;;9.20;93.90;;;;;;4994826;28;20038;-81
2023/03/28 06:31:44;;;;;;;11.77;5.78;;;9.20;94.20;;;;;;4994921;28;20121;-81
2023/03/28 06:34:10;;;;;;;8.45;6.00;;;9.30;94.00;;;;;;4984806;28;20122;-80
2023/03/28 06:36:36;;;;;;;13.23;6.82;;;9.40;93.80;;;;;;5001872;28;20050;-80
2023/03/28 06:39:02;;;;;;;13.98;7.55;;;9.40;93.80;;;;;;5008341;28;20033;-78
2023/03/28 06:41:29;;;;;;;13.68;8.43;;;9.50;93.70;;;;;;5007301;28;20143;-81
2023/03/28 06:43:55;;;;;;;16.85;9.18;;;9.60;93.70;;;;;;5003412;28;20034;-82
2023/03/28 06:46:21;;;;;;;14.45;9.40;;;9.80;93.50;;;;;;5001943;28;20022;-84
2023/03/28 06:48:47;;;;;;;13.57;8.15;;;9.90;93.00;;;;;;5003660;28;20468;-83
2023/03/28 06:51:13;;;;;;;12.90;8.65;;;10.00;92.70;;;;;;5009601;28;20068;-84
2023/03/28 06:53:42;;;;;;;15.35;9.15;;;10.20;92.60;;;;;;5010340;28;20177;-83
2023/03/28 06:56:08;;;;;;;16.35;9.32;;;10.40;92.00;;;;;;5007460;28;20112;-82
2023/03/28 06:58:37;;;;;;;11.32;7.32;;;10.50;91.50;;;;;;5007646;28;20015;-85
2023/03/28 07:01:04;;;;;;;10.95;7.15;;;10.60;91.00;;;;;;5005182;28;20042;-84
2023/03/28 07:03:31;;;;;;;11.37;7.60;;;10.70;90.30;;;;;;5003729;28;20022;-84
2023/03/28 07:05:57;;;;;;;12.40;7.93;;;10.90;90.10;;;;;;5009114;28;20038;-83
2023/03/28 07:08:23;;;;;;;14.82;9.27;;;11.00;89.70;;;;;;5006911;28;20381;-83
2023/03/28 07:10:49;;;;;;;21.15;9.50;;;11.20;88.90;;;;;;5004833;28;20101;-84
2023/03/28 07:13:15;;;;;;;11.52;8.82;;;11.40;88.10;;;;;;5003174;28;20077;-82
2023/03/28 07:15:41;;;;;;;14.27;9.13;;;11.70;86.80;;;;;;5004993;28;20089;-84
2023/03/28 07:18:10;;;;;;;18.05;9.32;;;12.10;85.90;;;;;;5001861;28;20026;-84
2023/03/28 07:20:40;;;;;;;23.88;11.63;;;12.70;83.90;;;;;;5002538;28;20097;-82
2023/03/28 07:23:06;;;;;;;15.13;9.43;;;13.30;81.90;;;;;;5012633;28;20129;-85
2023/03/28 07:25:32;;;;;;;11.55;8.32;;;14.00;80.10;;;;;;5004642;28;20042;-84
2023/03/28 07:27:58;;;;;;;13.82;9.55;;;14.40;76.30;;;;;;5028563;28;20065;-84
2023/03/28 07:30:25;;;;;;;15.63;10.18;;;14.60;74.90;;;;;;4998561;28;20487;-83
2023/03/28 07:32:52;;;;;;;12.75;8.10;;;14.60;73.40;;;;;;4997701;28;20395;-84
2023/03/28 07:35:18;;;;;;;25.70;11.98;;;14.30;73.10;;;;;;4999629;28;20148;-84
2023/03/28 07:37:54;;;;;;;20.23;10.02;;;14.10;72.50;;;;;;4998990;28;20053;-84
2023/03/28 07:40:20;;;;;;;12.80;9.40;;;13.90;73.10;;;;;;5000218;28;20030;-85
2023/03/28 07:42:48;;;;;;;13.30;10.57;;;13.80;73.30;;;;;;4998842;28;20030;-85
2023/03/28 07:45:14;;;;;;;17.65;11.13;;;13.70;73.20;;;;;;4997407;28;20034;-84
2023/03/28 07:47:41;;;;;;;19.60;10.70;;;13.60;73.00;;;;;;4999974;28;20022;-85
2023/03/28 07:50:07;;;;;;;13.93;10.55;;;13.40;73.30;;;;;;4991662;28;20019;-83
2023/03/28 07:52:33;;;;;;;21.55;11.25;;;13.10;74.00;;;;;;4993074;28;20042;-85
2023/03/28 07:55:02;;;;;;;18.50;10.18;;;12.70;75.10;;;;;;4997766;28;20034;-83
2023/03/28 07:57:28;;;;;;;13.48;10.20;;;12.60;76.20;;;;;;5002911;28;20077;-82
2023/03/28 07:59:55;;;;;;;18.00;11.00;;;12.50;75.70;;;;;;5006110;28;20029;-82
2023/03/28 08:02:21;;;;;;;17.10;10.18;;;12.50;76.30;;;;;;5009175;28;20026;-83
2023/03/28 08:04:48;;;;;;;17.10;9.98;;;12.70;76.50;;;;;;5004481;28;20034;-85
2023/03/28 08:07:14;;;;;;;18.52;10.70;;;13.10;74.90;;;;;;5002701;28;20018;-84
2023/03/28 08:09:40;;;;;;;20.58;11.05;;;13.20;74.00;;;;;;5002888;28;20044;-83
2023/03/28 08:12:09;;;;;;;22.30;10.50;;;13.40;74.10;;;;;;5012473;28;20034;-82
2023/03/28 08:14:35;;;;;;;31.08;12.65;;;13.50;73.30;;;;;;4999569;28;20065;-83
2023/03/28 08:17:01;;;;;;;34.45;10.70;;;13.80;72.60;;;;;;5006962;28;20127;-85
2023/03/28 08:19:27;;;;;;;15.80;9.52;;;14.10;71.60;;;;;;5006228;28;20045;-84
2023/03/28 08:21:54;;;;;;;16.85;10.80;;;14.40;70.20;;;;;;4999375;28;20101;-83
2023/03/28 08:24:20;;;;;;;26.83;12.87;;;14.10;69.50;;;;;;4997950;28;20032;-82
2023/03/28 08:26:46;;;;;;;34.03;12.73;;;14.10;70.30;;;;;;5001554;28;20327;-83
2023/03/28 08:29:12;;;;;;;13.52;9.35;;;14.20;70.20;;;;;;5002226;28;20038;-83
2023/03/28 08:31:41;;;;;;;17.63;10.70;;;14.20;68.90;;;;;;4997680;28;20027;-83
2023/03/28 08:34:06;;;;;;;14.55;10.10;;;14.30;68.40;;;;;;5000753;28;20033;-85
2023/03/28 08:36:33;;;;;;;21.42;10.85;;;14.60;68.40;;;;;;5017826;28;20026;-85
2023/03/28 08:38:59;;;;;;;16.25;10.65;;;14.60;66.90;;;;;;5002921;28;20026;-86
2023/03/28 08:41:57;;;;;;;18.02;10.15;;;14.60;67.40;;;;;;5000135;28;20082;-84
2023/03/28 08:44:41;;;;;;;15.40;9.18;;;14.80;66.00;;;;;;4981714;28;20077;-84
2023/03/28 08:47:11;;;;;;;18.63;10.38;;;14.60;65.50;;;;;;4997699;28;20030;-85
2023/03/28 08:49:47;;;;;;;24.67;11.30;;;14.10;66.20;;;;;;5015050;28;20030;-84
2023/03/28 08:52:19;;;;;;;17.00;10.15;;;14.00;67.70;;;;;;4996648;28;20128;-86
2023/03/28 08:55:17;;;;;;;21.08;8.93;;;13.90;66.80;;;;;;4984633;28;20042;-83
2023/03/28 08:57:44;;;;;;;16.98;9.68;;;13.80;66.20;;;;;;4991613;28;20038;-84
2023/03/28 09:00:30;;;;;;;19.80;9.40;;;13.60;66.40;;;;;;5008166;28;20080;-84
2023/03/28 09:02:57;;;;;;;12.33;7.47;;;13.60;66.60;;;;;;5001855;28;20511;-83
2023/03/28 09:05:35;;;;;;;13.75;8.60;;;13.80;65.90;;;;;;5007581;28;20034;-84
2023/03/28 09:08:22;;;;;;;20.67;7.55;;;14.10;64.30;;;;;;5008582;28;20025;-85
2023/03/28 09:10:56;;;;;;;;;;;14.10;64.50;;;;;;5022100;28;20028;-86
2023/03/28 09:13:40;;;;;;;15.75;8.38;;;14.80;66.40;;;;;;4999729;28;19909;-84
2023/03/28 09:16:27;;;;;;;19.80;8.75;;;15.80;62.50;;;;;;4999900;28;20038;-84
2023/03/28 09:19:09;;;;;;;21.30;9.48;;;16.40;60.40;;;;;;4997587;28;20031;-83
2023/03/28 09:22:03;;;;;;;21.10;10.15;;;16.90;58.80;;;;;;5010570;28;20031;-87
2023/03/28 09:25:01;;;;;;;17.38;8.90;;;17.60;57.90;;;;;;5028962;28;20026;-83
2023/03/28 09:27:33;;;;;;;15.48;8.60;;;18.10;55.90;;;;;;5007504;28;20022;-83
2023/03/28 09:30:24;;;;;;;15.90;10.20;;;18.60;54.00;;;;;;5016378;28;20036;-85
2023/03/28 09:32:54;;;;;;;16.65;10.18;;;18.90;53.20;;;;;;4993567;28;20023;-83
2023/03/28 09:35:23;;;;;;;21.92;9.38;;;18.30;51.50;;;;;;4999560;28;20046;-84
2023/03/28 09:38:05;;;;;;;26.88;9.70;;;17.40;52.90;;;;;;5003788;28;20046;-83
2023/03/28 09:40:33;;;;;;;16.58;9.18;;;16.70;55.40;;;;;;5003122;28;20034;-83
2023/03/28 09:43:20;;;;;;;21.15;9.45;;;17.00;55.40;;;;;;5009824;28;20022;-84
2023/03/28 09:45:57;;;;;;;26.35;11.07;;;17.50;54.30;;;;;;5006643;28;20029;-86
2023/03/28 09:48:35;;;;;;;18.23;9.15;;;18.10;53.00;;;;;;5010236;28;20099;-84
2023/03/28 09:51:03;;;;;;;24.02;10.05;;;18.30;52.20;;;;;;5004256;28;20026;-84
2023/03/28 09:53:36;;;;;;;18.42;8.52;;;19.00;51.30;;;;;;5016369;28;20488;-86
2023/03/28 09:56:05;;;;;;;15.43;8.95;;;20.50;50.00;;;;;;5007540;28;20034;-85
2023/03/28 09:58:52;;;;;;;17.50;7.90;;;21.20;47.00;;;;;;5000219;28;20041;-84
2023/03/28 10:01:38;;;;;;;13.38;6.57;;;21.00;46.30;;;;;;4996782;28;20015;-85
2023/03/28 10:04:12;;;;;;;15.00;6.57;;;21.10;45.80;;;;;;4997223;28;20480;-85
2023/03/28 10:06:39;;;;;;;11.65;6.20;;;20.90;45.10;;;;;;4999716;28;20479;-84
2023/03/28 10:09:21;;;;;;;17.65;6.72;;;20.90;43.60;;;;;;5001765;28;20039;-85
2023/03/28 10:12:08;;;;;;;22.20;6.88;;;21.00;44.10;;;;;;4997150;28;20034;-85
2023/03/28 10:14:45;;;;;;;11.30;6.20;;;21.30;44.10;;;;;;4997505;28;20046;-84
2023/03/28 10:17:28;;;;;;;;;;;21.80;43.00;;;;;;4998649;28;20523;-85
2023/03/28 10:20:21;;;;;;;8.60;4.63;;;22.10;44.60;;;;;;4998886;28;19906;-84
2023/03/28 10:22:50;;;;;;;20.45;5.88;;;21.80;41.40;;;;;;4985663;28;20034;-85
2023/03/28 10:25:20;;;;;;;14.13;5.95;;;21.10;41.50;;;;;;5002405;28;20022;-83
2023/03/28 10:27:47;;;;;;;15.20;5.72;;;20.10;42.50;;;;;;5020354;28;20037;-84
2023/03/28 10:30:14;;;;;;;;;;;19.10;43.80;;;;;;5008300;28;20022;-84
2023/03/28 10:32:41;;;;;;;16.77;5.80;;;17.70;45.40;;;;;;5019934;28;19932;-84
2023/03/28 10:35:18;;;;;;;11.13;4.28;;;16.50;47.50;;;;;;5002948;28;20045;-85
2023/03/28 10:37:49;;;;;;;11.85;5.80;;;16.00;48.10;;;;;;5001421;28;20026;-85
2023/03/28 10:40:18;;;;;;;10.35;4.68;;;15.70;48.50;;;;;;5002272;28;20085;-86
2023/03/28 10:42:48;;;;;;;7.07;4.03;;;15.30;48.50;;;;;;5033079;28;20026;-85
2023/03/28 10:45:38;;;;;;;14.20;4.45;;;14.80;49.30;;;;;;5004878;28;20085;-84
2023/03/28 10:48:14;;;;;;;7.35;3.90;;;14.30;50.40;;;;;;5007931;28;20037;-86
2023/03/28 10:50:54;;;;;;;13.25;5.07;;;13.90;51.30;;;;;;5021358;28;20031;-84
2023/03/28 10:53:54;;;;;;;9.00;3.72;;;13.40;52.70;;;;;;5011924;28;20078;-84
2023/03/28 10:56:51;;;;;;;8.27;4.50;;;13.00;53.50;;;;;;5018999;28;20041;-87
2023/03/28 10:59:36;;;;;;;;;;;12.50;55.10;;;;;;5008648;28;20020;-86
2023/03/28 11:02:35;;;;;;;7.93;3.97;;;12.20;55.30;;;;;;4996542;28;19944;-86
2023/03/28 11:05:10;;;;;;;9.43;3.60;;;12.10;57.30;;;;;;5008775;28;20030;-85
2023/03/28 11:07:58;;;;;;;7.13;4.32;;;12.00;56.80;;;;;;5027665;28;20034;-84
2023/03/28 11:10:58;;;;;;;8.68;4.38;;;11.70;56.80;;;;;;5004147;28;20045;-84
2023/03/28 11:13:43;;;;;;;11.23;5.32;;;11.60;57.90;;;;;;5004358;28;20076;-84
2023/03/28 11:16:24;;;;;;;14.00;5.00;;;11.50;58.70;;;;;;5013840;28;20069;-84
2023/03/28 11:19:27;;;;;;;21.88;5.13;;;11.40;59.10;;;;;;5001663;28;20034;-83
2023/03/28 11:21:52;;;;;;;9.25;4.45;;;11.40;59.20;;;;;;5017392;28;20033;-84
2023/03/28 11:24:46;;;;;;;11.75;4.68;;;11.40;59.50;;;;;;5026146;28;20083;-85
2023/03/28 11:27:52;;;;;;;18.13;6.70;;;11.40;59.50;;;;;;5018501;28;20026;-86
2023/03/28 11:30:38;;;;;;;10.73;5.00;;;11.50;59.90;;;;;;4999487;28;20121;-85
2023/03/28 11:33:24;;;;;;;16.55;5.05;;;11.50;59.40;;;;;;4998417;28;20084;-85
2023/03/28 11:35:58;;;;;;;8.20;4.30;;;11.50;59.80;;;;;;4995212;28;20041;-85
2023/03/28 11:38:49;;;;;;;8.45;4.55;;;11.50;60.10;;;;;;5024011;28;20022;-85
2023/03/28 11:41:22;;;;;;;6.15;4.18;;;11.50;59.60;;;;;;5001837;28;20077;-84
2023/03/28 11:44:29;;;;;;;12.70;4.68;;;11.40;59.60;;;;;;5001654;28;20536;-85
2023/03/28 11:47:11;;;;;;;10.55;5.72;;;11.30;60.10;;;;;;5030061;28;20037;-83
2023/03/28 11:50:13;;;;;;;10.20;5.22;;;11.30;59.90;;;;;;5005604;28;20057;-83
2023/03/28 11:53:09;;;;;;;16.38;6.28;;;11.20;59.90;;;;;;4973093;28;20073;-85
2023/03/28 11:55:43;;;;;;;7.88;4.78;;;11.30;59.90;;;;;;5010349;28;20053;-85
2023/03/28 11:58:22;;;;;;;10.68;5.18;;;11.30;59.80;;;;;;5011298;28;20027;-84
2023/03/28 12:01:02;;;;;;;10.40;4.45;;;11.10;60.50;;;;;;5005638;28;20042;-84
2023/03/28 12:03:36;;;;;;;8.02;4.47;;;11.10;61.30;;;;;;4990583;28;20014;-85
2023/03/28 12:06:40;;;;;;;12.35;6.80;;;11.00;61.70;;;;;;5002104;28;20030;-85
2023/03/28 12:09:19;;;;;;;10.40;6.88;;;10.90;62.90;;;;;;4943556;29;20091;-86
2023/03/28 12:11:55;;;;;;;27.88;7.38;;;10.80;63.70;;;;;;4943060;29;20028;-85
2023/03/28 12:14:46;;;;;;;12.35;7.63;;;10.90;64.30;;;;;;4940746;29;20110;-85
2023/03/28 12:17:21;;;;;;;16.13;7.72;;;10.90;65.20;;;;;;4956115;29;20059;-84
2023/03/28 12:19:48;;;;;;;11.57;6.85;;;10.80;66.10;;;;;;4955688;29;20038;-84
2023/03/28 12:22:39;;;;;;;10.40;6.90;;;11.00;66.10;;;;;;4947290;29;20027;-85
2023/03/28 12:25:19;;;;;;;22.25;7.57;;;11.10;65.60;;;;;;4954910;29;20538;-84
2023/03/28 12:27:55;;;;;;;12.95;6.72;;;11.20;65.80;;;;;;4925406;29;20039;-85
2023/03/28 12:30:24;;;;;;;12.55;7.63;;;11.20;65.70;;;;;;4936802;29;20835;-86
2023/03/28 12:33:12;;;;;;;23.63;9.85;;;11.50;65.90;;;;;;4924536;29;20038;-83
2023/03/28 12:35:44;;;;;;;14.80;7.85;;;11.70;65.30;;;;;;4935731;29;20040;-85
2023/03/28 12:38:18;;;;;;;10.32;7.07;;;11.90;64.40;;;;;;4952349;28;20548;-83
2023/03/28 12:40:58;;;;;;;14.50;8.13;;;12.10;63.70;;;;;;4992761;28;20134;-83
2023/03/28 12:43:54;;;;;;;14.10;8.10;;;12.10;63.70;;;;;;5005355;28;20053;-85
2023/03/28 12:46:35;;;;;;;18.08;8.85;;;12.10;63.80;;;;;;4999593;28;20094;-84
2023/03/28 12:49:42;;;;;;;15.90;8.90;;;12.10;64.00;;;;;;5002238;28;20034;-83
2023/03/28 12:52:14;;;;;;;22.83;9.68;;;12.00;63.90;;;;;;4983252;28;20084;-84
2023/03/28 12:54:58;;;;;;;22.88;10.20;;;12.00;64.70;;;;;;4997223;28;20502;-84
2023/03/28 12:57:39;;;;;;;15.93;9.02;;;11.90;64.60;;;;;;4999288;28;20035;-85
2023/03/28 13:00:27;;;;;;;14.20;8.52;;;11.80;64.80;;;;;;5000030;28;20030;-84
2023/03/28 13:03:11;;;;;;;12.25;9.02;;;11.70;65.00;;;;;;4996710;28;20030;-84
2023/03/28 13:06:17;;;;;;;16.10;10.68;;;11.70;65.20;;;;;;4997148;28;20033;-85
2023/03/28 13:08:49;;;;;;;15.68;9.75;;;11.70;65.60;;;;;;4933339;28;20039;-85
2023/03/28 13:11:38;;;;;;;17.42;9.50;;;11.60;65.80;;;;;;5011174;28;20156;-84
2023/03/28 13:14:07;;;;;;;12.90;9.65;;;11.50;65.90;;;;;;4992271;28;20062;-84
2023/03/28 13:16:54;;;;;;;16.58;11.25;;;11.30;66.50;;;;;;5004216;28;20097;-84